createdAt,value
2018-09-02T00:01:56.743Z,98037.52
2018-09-02T00:04:25.284Z,98038.31
2018-09-02T00:06:53.851Z,98040.48
2018-09-02T00:09:22.424Z,98035.75
2018-09-02T00:11:50.967Z,98038.80
2018-09-02T00:14:19.557Z,98038.80
2018-09-02T00:16:48.138Z,98033.19
2018-09-02T00:19:17.233Z,98037.52
2018-09-02T00:21:45.748Z,98032.80
2018-09-02T00:24:14.347Z,98034.08
2018-09-02T00:26:42.919Z,97183.38
2018-09-02T00:29:11.503Z,98027.22
2018-09-02T00:31:40.017Z,98031.06
2018-09-02T00:34:08.532Z,98027.67
2018-09-02T00:36:37.071Z,98023.38
2018-09-02T00:39:07.851Z,98028.55
2018-09-02T00:41:37.032Z,98028.55
2018-09-02T00:44:05.670Z,98022.15
2018-09-02T00:46:34.257Z,98020.44
2018-09-02T00:49:02.963Z,98017.47
2018-09-02T00:51:31.530Z,98017.08
2018-09-02T00:54:00.114Z,98016.64
2018-09-02T00:56:28.634Z,98017.13
2018-09-02T00:58:57.194Z,98014.96
2018-09-02T01:01:25.719Z,98013.69
2018-09-02T01:03:54.270Z,98011.17
2018-09-02T01:06:22.923Z,98007.72
2018-09-02T01:08:51.439Z,98008.16
2018-09-02T01:11:19.939Z,98005.65
2018-09-02T01:13:48.462Z,98001.80
2018-09-02T01:16:17.025Z,97999.24
2018-09-02T01:18:45.587Z,97997.96
2018-09-02T01:21:14.114Z,98006.98
2018-09-02T01:23:42.747Z,97999.29
2018-09-02T01:26:11.349Z,97998.86
2018-09-02T01:28:39.899Z,97994.16
2018-09-02T01:31:08.423Z,97992.45
2018-09-02T01:33:36.995Z,97987.33
2018-09-02T01:36:05.692Z,97989.49
2018-09-02T01:38:34.239Z,97990.38
2018-09-02T01:41:02.806Z,97984.77
2018-09-02T01:43:31.390Z,97987.38
2018-09-02T01:45:59.893Z,97985.25
2018-09-02T01:48:28.486Z,97990.83
2018-09-02T01:50:58.159Z,97989.94
2018-09-02T01:53:26.927Z,97983.09
2018-09-02T01:55:55.536Z,97982.25
2018-09-02T01:58:24.089Z,97983.09
2018-09-02T02:00:52.607Z,97970.68
2018-09-02T02:03:21.129Z,97972.84
2018-09-02T02:05:49.692Z,97974.57
2018-09-02T02:08:18.270Z,97970.73
2018-09-02T02:10:46.834Z,97970.73
2018-09-02T02:13:15.314Z,97969.45
2018-09-02T02:15:43.852Z,97969.88
2018-09-02T02:18:12.414Z,97966.87
2018-09-02T02:20:40.989Z,97963.04
2018-09-02T02:23:09.538Z,97966.48
2018-09-02T02:25:38.119Z,97962.24
2018-09-02T02:28:06.739Z,97955.78
2018-09-02T02:30:35.238Z,97956.23
2018-09-02T02:33:03.862Z,97956.69
2018-09-02T02:35:32.492Z,97958.35
2018-09-02T02:38:01.037Z,97963.92
2018-09-02T02:40:29.587Z,97955.36
2018-09-02T02:42:58.165Z,97952.74
2018-09-02T02:45:26.666Z,97953.63
2018-09-02T02:47:55.193Z,97956.19
2018-09-02T02:50:23.742Z,97945.06
2018-09-02T02:52:57.309Z,97946.34
2018-09-02T02:55:25.848Z,97942.55
2018-09-02T02:57:54.405Z,97939.98
2018-09-02T03:00:22.932Z,97941.70
2018-09-02T03:02:51.413Z,97860.77
2018-09-02T03:05:19.902Z,97935.29
2018-09-02T03:07:48.423Z,97936.57
2018-09-02T03:10:17.193Z,97930.16
2018-09-02T03:12:45.813Z,97934.41
2018-09-02T03:15:14.355Z,97928.89
2018-09-02T03:17:42.898Z,97928.00
2018-09-02T03:20:11.435Z,97927.17
2018-09-02T03:22:39.930Z,97926.77
2018-09-02T03:25:08.475Z,97929.78
2018-09-02T03:27:37.024Z,97931.50
2018-09-02T03:30:05.563Z,97917.80
2018-09-02T03:32:34.090Z,97915.24
2018-09-02T03:35:02.579Z,97910.52
2018-09-02T03:37:31.088Z,97916.52
2018-09-02T03:39:59.598Z,97916.97
2018-09-02T03:42:28.131Z,97912.68
2018-09-02T03:44:56.678Z,97903.67
2018-09-02T03:47:25.220Z,97904.06
2018-09-02T03:49:53.831Z,97902.38
2018-09-02T03:52:22.396Z,97900.22
2018-09-02T03:54:50.890Z,97898.94
2018-09-02T03:57:19.432Z,97898.09
2018-09-02T03:59:47.946Z,97898.55
2018-09-02T04:02:16.479Z,97897.66
2018-09-02T04:04:45.027Z,97894.30
2018-09-02T04:07:13.572Z,97896.81
2018-09-02T04:09:42.070Z,97891.26
2018-09-02T04:12:10.571Z,97890.41
2018-09-02T04:14:39.161Z,97884.00
2018-09-02T04:17:07.725Z,97890.41
2018-09-02T04:19:36.279Z,97888.69
2018-09-02T04:22:04.850Z,97890.86
2018-09-02T04:24:33.336Z,97890.41
2018-09-02T04:27:01.830Z,97891.26
2018-09-02T04:29:30.305Z,97899.42
2018-09-02T04:31:58.833Z,97895.09
2018-09-02T04:34:27.428Z,97896.81
2018-09-02T04:36:55.947Z,97893.02
2018-09-02T04:39:24.504Z,97890.86
2018-09-02T04:41:53.119Z,97893.42
2018-09-02T04:44:21.633Z,97887.46
2018-09-02T04:46:50.178Z,97886.13
2018-09-02T04:49:18.702Z,97879.69
2018-09-02T04:51:47.205Z,97882.72
2018-09-02T04:54:15.793Z,97886.57
2018-09-02T04:56:44.282Z,97888.30
2018-09-02T04:59:12.927Z,97890.41
2018-09-02T05:01:41.513Z,97886.13
2018-09-02T05:04:10.050Z,97882.29
2018-09-02T05:06:38.749Z,97882.72
2018-09-02T05:09:07.304Z,97884.00
2018-09-02T05:11:35.846Z,97895.53
2018-09-02T05:14:04.447Z,97888.30
2018-09-02T05:16:32.942Z,97880.56
2018-09-02T05:19:01.542Z,97886.57
2018-09-02T05:21:30.130Z,97877.55
2018-09-02T05:23:58.671Z,97880.96
2018-09-02T05:26:27.187Z,97886.52
2018-09-02T05:28:55.656Z,97886.97
2018-09-02T05:31:24.258Z,97886.97
2018-09-02T05:33:52.827Z,97877.55
2018-09-02T05:36:21.407Z,97876.72
2018-09-02T05:38:49.985Z,97882.24
2018-09-02T05:41:18.531Z,97883.13
2018-09-02T05:43:47.108Z,97886.09
2018-09-02T05:46:15.684Z,97884.81
2018-09-02T05:48:44.180Z,97886.92
2018-09-02T05:51:12.725Z,97887.37
2018-09-02T05:53:41.300Z,97893.77
2018-09-02T05:56:09.857Z,97893.77
2018-09-02T05:58:38.392Z,97891.16
2018-09-02T06:01:06.922Z,97892.44
2018-09-02T06:03:35.532Z,97898.45
2018-09-02T06:06:04.179Z,97895.44
2018-09-02T06:08:32.738Z,97896.67
2018-09-02T06:11:01.303Z,97896.72
2018-09-02T06:13:29.886Z,97898.00
2018-09-02T06:15:58.491Z,97898.45
2018-09-02T06:18:27.102Z,97897.56
2018-09-02T06:20:55.682Z,97895.44
2018-09-02T06:23:24.256Z,97890.31
2018-09-02T06:25:52.799Z,97884.76
2018-09-02T06:28:21.350Z,97889.03
2018-09-02T06:30:49.931Z,97887.75
2018-09-02T06:33:18.447Z,97889.03
2018-09-02T06:35:48.555Z,97890.72
2018-09-02T06:38:17.131Z,97887.27
2018-09-02T06:40:45.703Z,97892.00
2018-09-02T06:43:14.305Z,97890.27
2018-09-02T06:45:42.953Z,97888.16
2018-09-02T06:48:11.687Z,97886.04
2018-09-02T06:50:40.238Z,97884.36
2018-09-02T06:53:08.839Z,97882.20
2018-09-02T06:55:37.377Z,97874.06
2018-09-02T06:58:14.086Z,97873.19
2018-09-02T07:00:47.717Z,97882.15
2018-09-02T07:03:18.786Z,97888.55
2018-09-02T07:05:48.614Z,97891.12
2018-09-02T07:08:17.884Z,97894.16
2018-09-02T07:10:46.365Z,97900.56
2018-09-02T07:13:14.902Z,97897.52
2018-09-02T07:15:43.433Z,97901.84
2018-09-02T07:18:11.958Z,97906.13
2018-09-02T07:20:40.453Z,97904.85
2018-09-02T07:23:08.975Z,97906.58
2018-09-02T07:25:37.488Z,97912.14
2018-09-02T07:28:06.158Z,97915.15
2018-09-02T07:30:34.671Z,97909.62
2018-09-02T07:33:03.295Z,97906.63
2018-09-02T07:35:31.893Z,97911.75
2018-09-02T07:38:00.469Z,97905.34
2018-09-02T07:40:28.980Z,97897.27
2018-09-02T07:42:57.559Z,97886.57
2018-09-02T07:45:26.051Z,97879.77
2018-09-02T07:47:54.569Z,97878.45
2018-09-02T07:50:23.075Z,97875.44
2018-09-02T07:52:51.586Z,97894.30
2018-09-02T07:55:20.429Z,97894.70
2018-09-02T07:57:49.527Z,97893.02
2018-09-02T08:00:18.098Z,97885.73
2018-09-02T08:02:46.673Z,97886.13
2018-09-02T08:05:15.107Z,97898.94
2018-09-02T08:07:43.596Z,97899.42
2018-09-02T08:10:12.065Z,97894.70
2018-09-02T08:12:40.614Z,97898.59
2018-09-02T08:15:09.086Z,97897.22
2018-09-02T08:17:37.563Z,97898.94
2018-09-02T08:20:06.270Z,97907.02
2018-09-02T08:22:35.653Z,97907.32
2018-09-02T08:25:04.214Z,97908.55
2018-09-02T08:27:32.738Z,97903.33
2018-09-02T08:30:01.215Z,97908.01
2018-09-02T08:32:29.698Z,97907.92
2018-09-02T08:34:58.162Z,97913.45
2018-09-02T08:37:26.706Z,97905.27
2018-09-02T08:39:55.238Z,97893.21
2018-09-02T08:42:23.724Z,97890.61
2018-09-02T08:44:52.235Z,97896.11
2018-09-02T08:47:20.702Z,97884.11
2018-09-02T08:49:49.192Z,97893.50
2018-09-02T08:52:17.670Z,97889.61
2018-09-02T08:54:46.162Z,97888.28
2018-09-02T08:57:14.639Z,97901.48
2018-09-02T08:59:43.135Z,97900.56
2018-09-02T09:02:11.603Z,97898.48
2018-09-02T09:04:40.068Z,97899.81
2018-09-02T09:07:08.570Z,97899.47
2018-09-02T09:09:37.042Z,97899.47
2018-09-02T09:12:05.525Z,97902.12
2018-09-02T09:14:34.010Z,97909.86
2018-09-02T09:17:02.614Z,97912.91
2018-09-02T09:19:31.078Z,97912.07
2018-09-02T09:21:59.624Z,97913.41
2018-09-02T09:24:28.180Z,97914.28
2018-09-02T09:26:56.713Z,97910.01
2018-09-02T09:29:25.316Z,97913.93
2018-09-02T09:31:53.856Z,97908.41
2018-09-02T09:34:22.422Z,97908.45
2018-09-02T09:36:50.969Z,97906.77
2018-09-02T09:39:19.474Z,97909.34
2018-09-02T09:41:47.967Z,97907.58
2018-09-02T09:44:16.500Z,97905.02
2018-09-02T09:46:45.091Z,97899.05
2018-09-02T09:49:13.698Z,97897.77
2018-09-02T09:51:42.505Z,97903.29
2018-09-02T09:54:11.025Z,97899.45
2018-09-02T09:56:39.698Z,97894.72
2018-09-02T09:59:08.243Z,97894.24
2018-09-02T10:01:36.775Z,97886.69
2018-09-02T10:04:05.339Z,97891.91
2018-09-02T10:06:33.892Z,97895.80
2018-09-02T10:09:02.442Z,97894.52
2018-09-02T10:11:31.034Z,97889.84
2018-09-02T10:13:59.575Z,97891.59
2018-09-02T10:16:28.138Z,97880.96
2018-09-02T10:18:56.634Z,97895.58
2018-09-02T10:21:25.189Z,97893.06
2018-09-02T10:23:53.694Z,97896.56
2018-09-02T10:26:22.235Z,97881.24
2018-09-02T10:28:50.810Z,97883.41
2018-09-02T10:31:19.367Z,97874.70
2018-09-02T10:33:48.000Z,97880.44
2018-09-02T10:36:16.643Z,97877.05
2018-09-02T10:38:45.152Z,97871.08
2018-09-02T10:41:13.810Z,97871.61
2018-09-02T10:43:42.231Z,97865.65
2018-09-02T10:46:10.704Z,97871.17
2018-09-02T10:48:39.222Z,97864.81
2018-09-02T10:51:07.786Z,97871.70
2018-09-02T10:53:36.341Z,97868.30
2018-09-02T10:56:04.832Z,97870.52
2018-09-02T10:58:33.293Z,97863.67
2018-09-02T11:01:01.774Z,97866.72
2018-09-02T11:03:30.266Z,97864.55
2018-09-02T11:05:58.795Z,97863.72
2018-09-02T11:08:27.276Z,97868.44
2018-09-02T11:10:55.822Z,97864.20
2018-09-02T11:13:24.352Z,97864.59
2018-09-02T11:15:52.846Z,97862.87
2018-09-02T11:18:21.386Z,97865.43
2018-09-02T11:20:49.871Z,97870.60
2018-09-02T11:23:18.416Z,97873.97
2018-09-02T11:25:46.970Z,97873.13
2018-09-02T11:28:15.467Z,97871.45
2018-09-02T11:30:43.930Z,97866.89
2018-09-02T11:33:12.545Z,97864.33
2018-09-02T11:35:41.028Z,97867.73
2018-09-02T11:38:09.504Z,97863.05
2018-09-02T11:40:37.984Z,97860.44
2018-09-02T11:43:06.781Z,97858.68
2018-09-02T11:45:35.270Z,97853.11
2018-09-02T11:48:03.761Z,97851.42
2018-09-02T11:50:32.259Z,97856.55
2018-09-02T11:53:00.741Z,97852.23
2018-09-02T11:55:29.239Z,97857.79
2018-09-02T11:57:57.773Z,97862.96
2018-09-02T12:00:27.082Z,97859.07
2018-09-02T12:02:56.019Z,97853.94
2018-09-02T12:05:24.746Z,97855.62
2018-09-02T12:07:53.412Z,97854.34
2018-09-02T12:10:22.210Z,97855.67
2018-09-02T12:12:50.868Z,97858.19
2018-09-02T12:15:19.585Z,97853.90
2018-09-02T12:17:48.320Z,97846.66
2018-09-02T12:20:16.898Z,97840.25
2018-09-02T12:22:45.693Z,97839.84
2018-09-02T12:25:14.191Z,97842.81
2018-09-02T12:27:42.687Z,97844.50
2018-09-02T12:30:11.174Z,97845.38
2018-09-02T12:32:39.843Z,97834.68
2018-09-02T12:35:08.345Z,97828.27
2018-09-02T12:37:36.834Z,97824.83
2018-09-02T12:40:05.317Z,97829.95
2018-09-02T12:42:33.944Z,97836.36
2018-09-02T12:45:02.624Z,97840.61
2018-09-02T12:47:31.129Z,97826.95
2018-09-02T12:49:59.597Z,97833.35
2018-09-02T12:52:28.102Z,97823.91
2018-09-02T12:54:56.644Z,97822.63
2018-09-02T12:57:25.166Z,97806.41
2018-09-02T12:59:53.652Z,97814.94
2018-09-02T13:02:22.118Z,97811.53
2018-09-02T13:04:50.603Z,97809.41
2018-09-02T13:07:19.135Z,97808.57
2018-09-02T13:09:47.650Z,97810.73
2018-09-02T13:12:16.165Z,97805.61
2018-09-02T13:14:45.075Z,97813.34
2018-09-02T13:17:13.557Z,97808.61
2018-09-02T13:19:42.084Z,97804.77
2018-09-02T13:22:10.570Z,97815.91
2018-09-02T13:24:39.177Z,97812.50
2018-09-02T13:27:07.616Z,97808.27
2018-09-02T13:29:36.151Z,97811.70
2018-09-02T13:32:04.726Z,97812.55
2018-09-02T13:34:33.212Z,97818.16
2018-09-02T13:37:01.762Z,97816.88
2018-09-02T13:39:30.246Z,97807.47
2018-09-02T13:41:58.765Z,97809.67
2018-09-02T13:44:27.242Z,97806.70
2018-09-02T13:46:55.885Z,97806.27
2018-09-02T13:49:24.399Z,97804.99
2018-09-02T13:51:52.896Z,97806.31
2018-09-02T13:54:21.430Z,97802.02
2018-09-02T13:56:49.894Z,97804.99
2018-09-02T13:59:18.365Z,97799.02
2018-09-02T14:01:46.855Z,97796.86
2018-09-02T14:04:15.321Z,97793.02
2018-09-02T14:06:43.994Z,97799.02
2018-09-02T14:09:12.479Z,97799.02
2018-09-02T14:11:40.968Z,97794.73
2018-09-02T14:14:09.463Z,97793.45
2018-09-02T14:16:37.961Z,97800.30
2018-09-02T14:19:06.440Z,97795.58
2018-09-02T14:21:35.051Z,97795.58
2018-09-02T14:24:03.551Z,97792.13
2018-09-02T14:26:32.127Z,97794.70
2018-09-02T14:29:00.714Z,97796.41
2018-09-02T14:31:29.203Z,97795.98
2018-09-02T14:33:57.698Z,97790.84
2018-09-02T14:36:26.242Z,97788.72
2018-09-02T14:38:54.740Z,97789.57
2018-09-02T14:41:23.234Z,97788.29
2018-09-02T14:43:51.871Z,97787.00
2018-09-02T14:46:20.306Z,97786.96
2018-09-02T14:48:48.776Z,97781.44
2018-09-02T14:51:17.246Z,97783.95
2018-09-02T14:53:45.747Z,97780.99
2018-09-02T14:56:14.231Z,97780.52
2018-09-02T14:58:42.882Z,97739.39
2018-09-02T15:01:11.471Z,97789.92
2018-09-02T15:03:39.950Z,97784.80
2018-09-02T15:06:08.526Z,97791.60
2018-09-02T15:08:37.004Z,97782.63
2018-09-02T15:11:05.494Z,97778.34
2018-09-02T15:13:34.051Z,97778.34
2018-09-02T15:16:02.601Z,97783.03
2018-09-02T15:18:31.151Z,97784.75
2018-09-02T15:20:59.716Z,97786.44
2018-09-02T15:23:28.197Z,97789.44
2018-09-02T15:25:56.789Z,97789.44
2018-09-02T15:28:25.411Z,97788.59
2018-09-02T15:30:53.898Z,97791.60
2018-09-02T15:33:22.445Z,97783.47
2018-09-02T15:35:51.055Z,97782.59
2018-09-02T15:38:19.679Z,97785.55
2018-09-02T15:40:48.165Z,97785.59
2018-09-02T15:43:16.715Z,97783.47
2018-09-02T15:45:45.346Z,97782.19
2018-09-02T15:48:14.746Z,97781.75
2018-09-02T15:50:43.266Z,97774.90
2018-09-02T15:53:12.136Z,97770.17
2018-09-02T15:55:41.142Z,97776.18
2018-09-02T15:58:09.634Z,97771.89
2018-09-02T16:00:38.123Z,97768.05
2018-09-02T16:03:06.652Z,97768.05
2018-09-02T16:05:35.178Z,97770.17
2018-09-02T16:08:03.661Z,97766.72
2018-09-02T16:10:32.146Z,97769.73
2018-09-02T16:13:00.997Z,97768.85
2018-09-02T16:15:29.539Z,97764.16
2018-09-02T16:17:58.046Z,97759.88
2018-09-02T16:20:26.522Z,97754.31
2018-09-02T16:22:55.016Z,97756.00
2018-09-02T16:25:23.514Z,97751.71
2018-09-02T16:27:52.007Z,97752.98
2018-09-02T16:30:20.650Z,97759.39
2018-09-02T16:32:49.207Z,97751.71
2018-09-02T16:35:17.715Z,97755.15
2018-09-02T16:37:46.206Z,97749.98
2018-09-02T16:40:14.737Z,97748.27
2018-09-02T16:42:43.274Z,97747.86
2018-09-02T16:45:11.819Z,97740.58
2018-09-02T16:47:40.371Z,97744.02
2018-09-02T16:50:08.855Z,97746.55
2018-09-02T16:52:37.359Z,97751.27
2018-09-02T16:55:05.983Z,97749.98
2018-09-02T16:57:34.455Z,97745.26
2018-09-02T17:00:02.991Z,97749.50
2018-09-02T17:02:31.527Z,97739.69
2018-09-02T17:05:04.303Z,97743.14
2018-09-02T17:07:32.837Z,97741.38
2018-09-02T17:10:01.357Z,97695.81
2018-09-02T17:12:29.870Z,97735.41
2018-09-02T17:14:58.363Z,97736.66
2018-09-02T17:17:26.872Z,97743.89
2018-09-02T17:19:57.320Z,97734.05
2018-09-02T17:22:25.802Z,97738.72
2018-09-02T17:24:54.344Z,97741.69
2018-09-02T17:27:22.867Z,97734.88
2018-09-02T17:29:51.340Z,97726.80
2018-09-02T17:32:21.365Z,97732.36
2018-09-02T17:34:49.862Z,97741.33
2018-09-02T17:37:18.356Z,97736.20
2018-09-02T17:39:46.843Z,97739.17
2018-09-02T17:42:15.333Z,97744.77
2018-09-02T17:44:43.829Z,97746.05
2018-09-02T17:47:12.315Z,97746.90
2018-09-02T17:49:40.815Z,97740.49
2018-09-02T17:52:09.304Z,97738.81
2018-09-02T17:54:37.835Z,97740.49
2018-09-02T17:57:06.315Z,97751.22
2018-09-02T17:59:34.835Z,97749.06
2018-09-02T18:02:03.381Z,97743.53
2018-09-02T18:04:31.891Z,97746.50
2018-09-02T18:07:00.473Z,97746.90
2018-09-02T18:09:28.942Z,97744.81
2018-09-02T18:11:57.416Z,97748.22
2018-09-02T18:14:25.923Z,97754.19
2018-09-02T18:16:54.466Z,97750.34
2018-09-02T18:19:22.938Z,97748.62
2018-09-02T18:21:51.422Z,97748.66
2018-09-02T18:24:19.931Z,97749.94
2018-09-02T18:26:48.400Z,97749.02
2018-09-02T18:29:16.876Z,97750.66
2018-09-02T18:31:45.371Z,97751.94
2018-09-02T18:34:13.838Z,97746.77
2018-09-02T18:36:42.320Z,97749.34
2018-09-02T18:39:11.506Z,97748.94
2018-09-02T18:41:39.918Z,97747.65
2018-09-02T18:44:08.398Z,97744.25
2018-09-02T18:46:36.919Z,97750.22
2018-09-02T18:49:06.235Z,97751.94
2018-09-02T18:51:34.710Z,97746.81
2018-09-02T18:54:03.261Z,97751.14
2018-09-02T18:56:31.755Z,97751.53
2018-09-02T18:59:00.379Z,97755.38
2018-09-02T19:01:28.866Z,97757.11
2018-09-02T19:03:58.214Z,97753.22
2018-09-02T19:06:43.632Z,96861.84
2018-09-02T19:09:12.102Z,97755.83
2018-09-02T19:11:40.583Z,97750.25
2018-09-02T19:14:09.104Z,97750.70
2018-09-02T19:16:37.603Z,97755.38
2018-09-02T19:19:06.326Z,97744.73
2018-09-02T19:21:34.811Z,97744.25
2018-09-02T19:24:09.936Z,97745.13
2018-09-02T19:26:38.414Z,97743.84
2018-09-02T19:29:06.970Z,97746.41
2018-09-02T19:31:35.466Z,97743.84
2018-09-02T19:34:03.945Z,97741.69
2018-09-02T19:36:32.476Z,97741.69
2018-09-02T19:39:01.039Z,97741.69
2018-09-02T19:41:29.505Z,97741.24
2018-09-02T19:43:59.008Z,97739.97
2018-09-02T19:46:27.650Z,97738.69
2018-09-02T19:48:56.167Z,97740.36
2018-09-02T19:51:25.364Z,97736.52
2018-09-02T19:53:53.913Z,97741.24
2018-09-02T19:56:22.434Z,97731.13
2018-09-02T19:58:50.947Z,97722.52
2018-09-02T20:01:19.519Z,97732.36
2018-09-02T20:03:48.047Z,97722.52
2018-09-02T20:06:16.653Z,97725.95
2018-09-02T20:08:45.253Z,97716.11
2018-09-02T20:11:13.835Z,97716.98
2018-09-02T20:13:42.428Z,97705.41
2018-09-02T20:16:11.143Z,97706.30
2018-09-02T20:18:39.830Z,97697.29
2018-09-02T20:21:08.359Z,97696.01
2018-09-02T20:23:36.909Z,97699.01
2018-09-02T20:26:05.500Z,97699.84
2018-09-02T20:28:34.121Z,97701.94
2018-09-02T20:31:02.736Z,97701.09
2018-09-02T20:33:31.276Z,97707.49
2018-09-02T20:35:59.918Z,97710.45
2018-09-02T20:38:28.448Z,97709.13
2018-09-02T20:40:57.005Z,97706.53
2018-09-02T20:43:25.683Z,97711.20
2018-09-02T20:45:54.257Z,97717.18
2018-09-02T20:48:22.763Z,97711.20
2018-09-02T20:50:51.268Z,97717.18
2018-09-02T20:53:19.816Z,97715.86
2018-09-02T20:55:48.408Z,97720.17
2018-09-02T20:58:16.954Z,97717.61
2018-09-02T21:00:47.986Z,97717.18
2018-09-02T21:03:17.490Z,97717.18
2018-09-02T21:05:46.107Z,97707.77
2018-09-02T21:08:14.754Z,97703.48
2018-09-02T21:10:43.280Z,97709.45
2018-09-02T21:13:12.059Z,97712.02
2018-09-02T21:15:40.592Z,97712.45
2018-09-02T21:18:09.122Z,97712.45
2018-09-02T21:20:37.722Z,97712.85
2018-09-02T21:23:06.316Z,97716.69
2018-09-02T21:25:34.869Z,97720.53
2018-09-02T21:28:03.382Z,97722.66
2018-09-02T21:30:31.890Z,97714.09
2018-09-02T21:33:00.392Z,97711.53
2018-09-02T21:35:28.946Z,97713.25
2018-09-02T21:37:57.473Z,97711.92
2018-09-02T21:40:25.987Z,97708.97
2018-09-02T21:42:54.516Z,97707.64
2018-09-02T21:45:24.247Z,97702.12
2018-09-02T21:47:52.885Z,97695.28
2018-09-02T21:50:21.466Z,97691.03
2018-09-02T21:52:50.074Z,97157.73
2018-09-02T21:55:18.605Z,97685.03
2018-09-02T21:57:47.162Z,97687.15
2018-09-02T22:00:17.058Z,97690.99
2018-09-02T22:02:45.612Z,97682.91
2018-09-02T22:05:15.378Z,97683.79
2018-09-02T22:07:43.946Z,97679.46
2018-09-02T22:10:12.817Z,97673.50
2018-09-02T22:12:41.417Z,97671.78
2018-09-02T22:15:10.650Z,97667.94
2018-09-02T22:17:39.187Z,97664.50
2018-09-02T22:20:08.098Z,97661.53
2018-09-02T22:22:36.632Z,97654.25
2018-09-02T22:25:05.724Z,97645.72
2018-09-02T22:27:34.279Z,97113.80
2018-09-02T22:30:02.799Z,97629.06
2018-09-02T22:32:31.414Z,97627.34
2018-09-02T22:34:59.972Z,97627.31
2018-09-02T22:37:28.554Z,97620.10
2018-09-02T22:39:57.061Z,97614.09
2018-09-02T22:42:25.586Z,97602.97
2018-09-02T22:44:54.078Z,97589.77
2018-09-02T22:47:22.615Z,97579.08
2018-09-02T22:49:51.186Z,97577.36
2018-09-02T22:52:19.707Z,97571.83
2018-09-02T22:54:48.268Z,97569.67
2018-09-02T22:57:16.934Z,97574.80
2018-09-02T22:59:45.523Z,97564.14
2018-09-02T23:02:14.038Z,97559.86
2018-09-02T23:04:42.598Z,97564.11
2018-09-02T23:07:11.110Z,97559.86
2018-09-02T23:09:39.661Z,97561.98
2018-09-02T23:12:08.183Z,97567.95
2018-09-02T23:14:36.782Z,97568.39
2018-09-02T23:17:05.344Z,97566.67
2018-09-02T23:19:33.940Z,97567.08
2018-09-02T23:22:02.455Z,97567.11
2018-09-02T23:24:31.142Z,97561.14
2018-09-02T23:26:59.681Z,97576.52
2018-09-02T23:29:28.200Z,97582.92
2018-09-02T23:31:56.752Z,97585.48
2018-09-02T23:34:25.279Z,97585.00
2018-09-02T23:36:53.820Z,97588.45
2018-09-02T23:39:22.350Z,97596.53
2018-09-02T23:41:50.837Z,97602.94
2018-09-02T23:44:19.352Z,97600.37
2018-09-02T23:46:47.851Z,97585.44
2018-09-02T23:49:16.387Z,97587.16
2018-09-02T23:51:44.958Z,97597.81
2018-09-02T23:54:13.568Z,97596.12
2018-09-02T23:56:42.290Z,97593.97
2018-09-02T23:59:10.866Z,97602.53
